sensor_id;sensor_type;location;lat;lon;timestamp;temperature;humidity
45735;DHT22;31446;49.632;8.328;2023-03-01T00:13:13;0.00;99.90
45735;DHT22;31446;49.632;8.328;2023-03-01T00:28:20;-0.20;99.90
45735;DHT22;31446;49.632;8.328;2023-03-01T00:43:26;-0.30;99.90
45735;DHT22;31446;49.632;8.328;2023-03-01T00:58:32;-0.10;99.90
45735;DHT22;31446;49.632;8.328;2023-03-01T01:13:39;-0.20;99.90
45735;DHT22;31446;49.632;8.328;2023-03-01T01:28:46;-0.60;99.90
45735;DHT22;31446;49.632;8.328;2023-03-01T01:44:15;-0.70;99.90
45735;DHT22;31446;49.632;8.328;2023-03-01T01:59:21;-1.00;99.90
45735;DHT22;31446;49.632;8.328;2023-03-01T02:14:29;-0.60;99.90
45735;DHT22;31446;49.632;8.328;2023-03-01T02:29:35;-0.40;99.90
45735;DHT22;31446;49.632;8.328;2023-03-01T02:44:41;-0.50;99.90
45735;DHT22;31446;49.632;8.328;2023-03-01T02:59:48;-0.40;99.90
45735;DHT22;31446;49.632;8.328;2023-03-01T03:14:55;-0.30;99.90
45735;DHT22;31446;49.632;8.328;2023-03-01T03:30:01;-0.30;99.90
45735;DHT22;31446;49.632;8.328;2023-03-01T03:45:12;-0.30;99.90
45735;DHT22;31446;49.632;8.328;2023-03-01T04:00:20;-0.30;99.90
45735;DHT22;31446;49.632;8.328;2023-03-01T04:15:27;-0.20;99.90
45735;DHT22;31446;49.632;8.328;2023-03-01T04:30:33;-0.10;99.90
45735;DHT22;31446;49.632;8.328;2023-03-01T04:45:52;-0.30;99.90
45735;DHT22;31446;49.632;8.328;2023-03-01T05:00:59;-0.20;99.90
45735;DHT22;31446;49.632;8.328;2023-03-01T05:16:07;0.00;99.90
45735;DHT22;31446;49.632;8.328;2023-03-01T05:31:15;0.10;99.90
45735;DHT22;31446;49.632;8.328;2023-03-01T05:46:21;0.10;99.90
45735;DHT22;31446;49.632;8.328;2023-03-01T06:01:27;0.10;99.90
45735;DHT22;31446;49.632;8.328;2023-03-01T06:16:33;0.30;99.90
45735;DHT22;31446;49.632;8.328;2023-03-01T06:31:39;0.30;99.90
45735;DHT22;31446;49.632;8.328;2023-03-01T06:46:46;0.40;99.90
45735;DHT22;31446;49.632;8.328;2023-03-01T07:01:52;0.70;99.90
45735;DHT22;31446;49.632;8.328;2023-03-01T07:16:58;1.10;99.90
45735;DHT22;31446;49.632;8.328;2023-03-01T07:32:05;1.30;99.90
45735;DHT22;31446;49.632;8.328;2023-03-01T07:47:12;1.50;99.90
45735;DHT22;31446;49.632;8.328;2023-03-01T08:02:18;1.80;99.90
45735;DHT22;31446;49.632;8.328;2023-03-01T08:17:24;2.00;99.90
45735;DHT22;31446;49.632;8.328;2023-03-01T08:32:35;2.80;99.90
45735;DHT22;31446;49.632;8.328;2023-03-01T08:47:42;3.50;99.90
45735;DHT22;31446;49.632;8.328;2023-03-01T09:02:48;3.50;99.90
45735;DHT22;31446;49.632;8.328;2023-03-01T09:17:54;4.10;99.90
45735;DHT22;31446;49.632;8.328;2023-03-01T09:33:00;4.70;99.90
45735;DHT22;31446;49.632;8.328;2023-03-01T09:48:15;5.20;99.90
45735;DHT22;31446;49.632;8.328;2023-03-01T10:03:26;5.50;99.90
45735;DHT22;31446;49.632;8.328;2023-03-01T10:18:33;6.10;99.90
45735;DHT22;31446;49.632;8.328;2023-03-01T10:33:42;6.80;99.90
45735;DHT22;31446;49.632;8.328;2023-03-01T10:49:12;6.70;98.90
45735;DHT22;31446;49.632;8.328;2023-03-01T11:04:19;7.10;98.00
45735;DHT22;31446;49.632;8.328;2023-03-01T11:19:25;7.70;96.80
45735;DHT22;31446;49.632;8.328;2023-03-01T11:34:40;8.00;95.60
45735;DHT22;31446;49.632;8.328;2023-03-01T11:50:02;8.40;94.50
45735;DHT22;31446;49.632;8.328;2023-03-01T12:05:36;8.30;93.60
45735;DHT22;31446;49.632;8.328;2023-03-01T12:20:56;8.70;93.10
45735;DHT22;31446;49.632;8.328;2023-03-01T12:36:27;9.00;92.40
45735;DHT22;31446;49.632;8.328;2023-03-01T12:51:38;9.40;91.50
45735;DHT22;31446;49.632;8.328;2023-03-01T13:06:55;10.90;88.10
45735;DHT22;31446;49.632;8.328;2023-03-01T13:22:29;10.20;87.90
45735;DHT22;31446;49.632;8.328;2023-03-01T13:37:37;9.80;86.70
45735;DHT22;31446;49.632;8.328;2023-03-01T13:52:44;11.20;85.60
45735;DHT22;31446;49.632;8.328;2023-03-01T14:07:53;11.10;83.90
45735;DHT22;31446;49.632;8.328;2023-03-01T14:23:02;10.50;83.40
45735;DHT22;31446;49.632;8.328;2023-03-01T14:38:20;10.20;83.20
45735;DHT22;31446;49.632;8.328;2023-03-01T14:53:28;10.20;83.60
45735;DHT22;31446;49.632;8.328;2023-03-01T15:08:35;10.20;83.10
45735;DHT22;31446;49.632;8.328;2023-03-01T15:23:48;9.80;83.10
45735;DHT22;31446;49.632;8.328;2023-03-01T15:38:56;10.10;82.50
45735;DHT22;31446;49.632;8.328;2023-03-01T15:54:05;9.70;84.20
45735;DHT22;31446;49.632;8.328;2023-03-01T16:09:12;9.40;84.80
45735;DHT22;31446;49.632;8.328;2023-03-01T16:24:18;9.10;84.80
45735;DHT22;31446;49.632;8.328;2023-03-01T16:39:24;8.60;86.60
45735;DHT22;31446;49.632;8.328;2023-03-01T16:54:30;8.30;87.40
45735;DHT22;31446;49.632;8.328;2023-03-01T17:09:39;8.00;89.40
45735;DHT22;31446;49.632;8.328;2023-03-01T17:24:47;7.70;90.10
45735;DHT22;31446;49.632;8.328;2023-03-01T17:39:56;7.30;90.70
45735;DHT22;31446;49.632;8.328;2023-03-01T17:55:02;7.00;91.40
45735;DHT22;31446;49.632;8.328;2023-03-01T18:10:10;6.60;92.20
45735;DHT22;31446;49.632;8.328;2023-03-01T18:41:11;5.90;93.60
45735;DHT22;31446;49.632;8.328;2023-03-01T18:56:21;5.20;94.40
45735;DHT22;31446;49.632;8.328;2023-03-01T19:11:28;4.90;95.00
45735;DHT22;31446;49.632;8.328;2023-03-01T19:26:35;5.00;95.40
45735;DHT22;31446;49.632;8.328;2023-03-01T19:41:44;4.90;95.70
45735;DHT22;31446;49.632;8.328;2023-03-01T19:56:50;4.70;96.10
45735;DHT22;31446;49.632;8.328;2023-03-01T20:11:57;4.50;97.10
45735;DHT22;31446;49.632;8.328;2023-03-01T20:27:04;4.30;96.90
45735;DHT22;31446;49.632;8.328;2023-03-01T20:42:10;4.20;97.00
45735;DHT22;31446;49.632;8.328;2023-03-01T20:57:16;3.90;97.10
45735;DHT22;31446;49.632;8.328;2023-03-01T21:12:22;3.80;97.30
45735;DHT22;31446;49.632;8.328;2023-03-01T21:27:28;3.70;97.60
45735;DHT22;31446;49.632;8.328;2023-03-01T21:42:37;3.50;98.20
45735;DHT22;31446;49.632;8.328;2023-03-01T21:57:45;3.20;98.70
45735;DHT22;31446;49.632;8.328;2023-03-01T22:12:52;3.00;99.30
45735;DHT22;31446;49.632;8.328;2023-03-01T22:27:58;2.90;99.80
45735;DHT22;31446;49.632;8.328;2023-03-01T22:43:04;2.70;99.90
45735;DHT22;31446;49.632;8.328;2023-03-01T22:58:11;2.60;99.90
45735;DHT22;31446;49.632;8.328;2023-03-01T23:13:17;2.20;99.90
45735;DHT22;31446;49.632;8.328;2023-03-01T23:28:24;2.10;99.90
45735;DHT22;31446;49.632;8.328;2023-03-01T23:43:30;2.10;99.90
45735;DHT22;31446;49.632;8.328;2023-03-01T23:58:37;2.00;99.90
